Time;durP1;ratioP1;P1;durP2;ratioP2;P2;SDS_P1;SDS_P2;PMS_P1;PMS_P2;Temp;Humidity;BMP_temperature;BMP_pressure;BME280_temperature;BME280_humidity;BME280_pressure;Samples;Min_cycle;Max_cycle;Signal;HPM_P1;HPM_P2
2023/10/29 00:01:03;;;;;;;6.30;4.10;;;10.70;99.90;;;;;;5023174;28;20045;-57
2023/10/29 00:03:29;;;;;;;8.27;4.28;;;10.70;99.90;;;;;;5024474;28;20049;-57
2023/10/29 00:05:55;;;;;;;5.63;4.10;;;10.80;99.90;;;;;;5022271;28;20046;-58
2023/10/29 00:08:21;;;;;;;6.88;4.00;;;10.80;99.90;;;;;;5018195;28;20107;-58
2023/10/29 00:10:46;;;;;;;8.25;3.90;;;10.80;99.90;;;;;;5015630;28;20037;-58
2023/10/29 00:13:12;;;;;;;8.27;4.35;;;10.80;99.90;;;;;;5026159;28;20048;-58
2023/10/29 00:15:38;;;;;;;7.90;4.30;;;10.80;99.90;;;;;;5022133;28;20384;-56
2023/10/29 00:18:12;;;;;;;6.85;4.43;;;10.80;99.90;;;;;;5019504;28;20044;-58
2023/10/29 00:20:39;;;;;;;9.55;3.90;;;10.80;99.90;;;;;;5028453;28;20048;-58
2023/10/29 00:23:05;;;;;;;6.68;4.10;;;10.80;99.90;;;;;;5031946;28;20041;-58
2023/10/29 00:25:30;;;;;;;5.85;4.40;;;10.90;99.90;;;;;;5026454;28;20118;-58
2023/10/29 00:27:56;;;;;;;7.85;4.70;;;10.90;99.90;;;;;;5023427;28;20037;-58
2023/10/29 00:30:22;;;;;;;7.57;4.70;;;10.90;99.90;;;;;;5027554;28;20641;-58
2023/10/29 00:32:48;;;;;;;7.07;4.60;;;10.90;99.90;;;;;;5028535;28;20041;-58
2023/10/29 00:35:13;;;;;;;8.23;4.75;;;10.90;99.90;;;;;;5027953;28;20801;-58
2023/10/29 00:37:39;;;;;;;6.20;4.30;;;10.90;99.90;;;;;;5032962;28;20045;-58
2023/10/29 00:40:05;;;;;;;5.70;4.55;;;10.90;99.90;;;;;;5026146;28;20396;-58
2023/10/29 00:42:31;;;;;;;8.02;4.70;;;10.90;99.90;;;;;;5006416;28;20103;-58
2023/10/29 00:44:57;;;;;;;8.95;4.95;;;10.90;99.90;;;;;;5005297;28;20484;-58
2023/10/29 00:47:22;;;;;;;6.75;4.63;;;10.90;99.90;;;;;;5011889;28;20119;-59
2023/10/29 00:49:48;;;;;;;7.75;4.95;;;11.00;99.90;;;;;;5014316;28;20052;-58
2023/10/29 00:52:14;;;;;;;8.13;4.63;;;11.00;99.90;;;;;;5029113;28;20987;-59
2023/10/29 00:54:40;;;;;;;5.15;4.00;;;11.00;99.90;;;;;;5030050;28;20045;-57
2023/10/29 00:57:07;;;;;;;6.30;4.38;;;11.00;99.90;;;;;;5023818;28;20071;-58
2023/10/29 00:59:34;;;;;;;5.78;4.50;;;11.00;99.90;;;;;;5022892;28;21581;-56
2023/10/29 01:02:01;;;;;;;5.63;4.18;;;11.00;99.90;;;;;;5025054;28;20086;-57
2023/10/29 01:04:27;;;;;;;6.75;3.80;;;11.00;99.90;;;;;;5030964;28;20072;-58
2023/10/29 01:06:53;;;;;;;6.85;4.25;;;11.00;99.90;;;;;;5009425;28;20515;-57
2023/10/29 01:09:19;;;;;;;5.82;3.80;;;11.10;99.90;;;;;;5028339;28;20622;-59
2023/10/29 01:11:46;;;;;;;5.00;3.70;;;11.10;99.90;;;;;;5031353;28;20059;-57
2023/10/29 01:14:12;;;;;;;5.30;4.07;;;11.10;99.90;;;;;;5028081;28;20059;-57
2023/10/29 01:16:39;;;;;;;4.63;3.50;;;11.10;99.90;;;;;;5016899;28;21717;-58
2023/10/29 01:19:04;;;;;;;5.43;3.47;;;11.10;99.90;;;;;;5032908;28;20090;-57
2023/10/29 01:21:31;;;;;;;5.00;3.80;;;11.20;99.90;;;;;;5029727;28;20480;-57
2023/10/29 01:23:57;;;;;;;4.55;3.33;;;11.10;99.90;;;;;;5031013;28;21181;-58
2023/10/29 01:26:24;;;;;;;6.13;3.83;;;11.20;99.90;;;;;;5026281;28;20049;-57
2023/10/29 01:28:50;;;;;;;4.20;3.47;;;11.20;99.90;;;;;;5032596;28;20798;-59
2023/10/29 01:31:16;;;;;;;4.82;3.53;;;11.20;99.90;;;;;;5025965;28;20041;-58
2023/10/29 01:33:42;;;;;;;5.07;3.17;;;11.20;99.90;;;;;;5029206;28;20445;-59
2023/10/29 01:36:07;;;;;;;4.25;3.22;;;11.20;99.90;;;;;;5022793;28;20407;-59
2023/10/29 01:38:33;;;;;;;4.80;3.60;;;11.30;99.90;;;;;;5024476;28;20048;-58
2023/10/29 01:41:00;;;;;;;4.97;3.45;;;11.30;99.90;;;;;;5010987;28;20033;-58
2023/10/29 01:43:26;;;;;;;4.60;3.50;;;11.30;99.90;;;;;;5025150;28;20044;-59
2023/10/29 01:45:52;;;;;;;5.78;3.78;;;11.30;99.90;;;;;;5024331;28;20657;-58
2023/10/29 01:48:19;;;;;;;4.30;3.58;;;11.30;99.90;;;;;;5020438;28;20039;-58
2023/10/29 01:50:46;;;;;;;4.78;4.20;;;11.40;99.90;;;;;;5024925;28;20440;-58
2023/10/29 01:53:12;;;;;;;4.22;3.50;;;11.40;99.90;;;;;;5023644;28;20127;-59
2023/10/29 01:55:37;;;;;;;5.43;3.83;;;11.40;99.90;;;;;;5026344;28;20041;-57
2023/10/29 01:58:04;;;;;;;4.05;3.65;;;11.50;99.90;;;;;;5024155;28;20116;-59
2023/10/29 02:00:30;;;;;;;5.35;3.85;;;11.50;99.90;;;;;;5019608;28;20049;-58
2023/10/29 02:02:56;;;;;;;6.05;3.97;;;11.50;99.90;;;;;;5023060;28;20045;-59
2023/10/29 02:05:22;;;;;;;5.43;4.40;;;11.50;99.90;;;;;;5022404;28;20500;-58
2023/10/29 02:07:51;;;;;;;4.95;3.97;;;11.60;99.90;;;;;;5012195;28;20594;-59
2023/10/29 02:10:16;;;;;;;4.88;4.20;;;11.70;99.90;;;;;;5021650;28;20064;-56
2023/10/29 02:12:42;;;;;;;4.55;4.10;;;11.60;99.90;;;;;;5018046;28;20175;-58
2023/10/29 02:15:08;;;;;;;6.18;4.20;;;11.70;99.90;;;;;;5027103;28;20083;-57
2023/10/29 02:17:34;;;;;;;5.78;4.03;;;11.70;99.90;;;;;;5011817;28;20060;-58
2023/10/29 02:19:59;;;;;;;7.03;4.38;;;11.80;99.90;;;;;;5028101;28;20093;-58
2023/10/29 02:22:28;;;;;;;7.78;3.95;;;11.80;99.90;;;;;;5026997;28;20484;-58
2023/10/29 02:24:54;;;;;;;5.03;3.70;;;11.80;99.90;;;;;;5023369;28;20102;-58
2023/10/29 02:27:20;;;;;;;4.35;3.55;;;11.80;99.90;;;;;;5023925;28;20049;-58
2023/10/29 02:29:45;;;;;;;5.15;3.42;;;11.90;99.90;;;;;;5030705;28;20652;-59
2023/10/29 02:32:11;;;;;;;5.65;3.88;;;11.90;99.90;;;;;;5031739;28;20174;-58
2023/10/29 02:34:37;;;;;;;5.20;3.70;;;12.00;99.90;;;;;;5025691;28;20056;-58
2023/10/29 02:37:03;;;;;;;6.28;3.40;;;12.00;99.90;;;;;;5030885;28;20048;-58
2023/10/29 02:39:28;;;;;;;4.13;3.30;;;12.00;99.90;;;;;;5027831;28;20102;-57
2023/10/29 02:41:54;;;;;;;5.43;3.05;;;12.10;99.90;;;;;;5022070;28;20725;-57
2023/10/29 02:44:20;;;;;;;7.57;3.10;;;12.10;99.90;;;;;;5007168;28;20748;-59
2023/10/29 02:46:45;;;;;;;4.78;3.10;;;12.10;99.90;;;;;;5019843;28;20048;-58
2023/10/29 02:49:11;;;;;;;4.63;3.08;;;12.20;99.90;;;;;;5025035;28;20123;-58
2023/10/29 02:51:37;;;;;;;4.50;3.03;;;12.20;99.90;;;;;;5026659;28;20059;-57
2023/10/29 02:54:03;;;;;;;7.43;3.22;;;12.20;99.90;;;;;;5025858;28;20136;-57
2023/10/29 02:56:30;;;;;;;5.70;3.40;;;12.20;99.90;;;;;;5028854;28;20622;-59
2023/10/29 02:58:56;;;;;;;4.97;2.83;;;12.20;99.90;;;;;;5026727;28;20045;-58
2023/10/29 03:01:21;;;;;;;5.50;2.75;;;12.20;99.90;;;;;;4994076;28;20043;-58
2023/10/29 03:03:47;;;;;;;4.03;2.55;;;12.20;99.90;;;;;;5010930;28;24936;-57
2023/10/29 03:06:13;;;;;;;5.68;2.55;;;12.20;99.90;;;;;;5021117;28;20037;-56
2023/10/29 03:08:39;;;;;;;5.25;2.67;;;12.20;99.90;;;;;;5006339;28;20041;-58
2023/10/29 03:11:05;;;;;;;8.55;2.83;;;12.20;99.90;;;;;;5022467;28;20063;-57
2023/10/29 03:13:31;;;;;;;4.32;2.50;;;12.20;99.90;;;;;;5012918;28;20283;-58
2023/10/29 03:15:57;;;;;;;5.32;2.92;;;12.20;99.90;;;;;;5021732;28;20528;-58
2023/10/29 03:18:22;;;;;;;5.78;2.60;;;12.20;99.90;;;;;;5023103;28;20181;-58
2023/10/29 03:20:48;;;;;;;7.32;2.60;;;12.20;99.90;;;;;;5020935;28;20526;-58
2023/10/29 03:23:14;;;;;;;4.07;2.40;;;12.20;99.90;;;;;;5005311;28;20053;-58
2023/10/29 03:25:40;;;;;;;6.13;2.28;;;12.20;99.90;;;;;;5021390;28;20620;-56
2023/10/29 03:28:06;;;;;;;4.85;2.08;;;12.20;99.90;;;;;;5023283;28;20437;-58
2023/10/29 03:30:32;;;;;;;4.07;2.10;;;12.20;99.90;;;;;;5022514;28;20102;-59
2023/10/29 03:32:59;;;;;;;6.03;2.40;;;12.20;99.90;;;;;;5024329;28;20040;-59
2023/10/29 03:35:28;;;;;;;5.85;2.35;;;12.20;99.90;;;;;;5026844;28;20059;-57
2023/10/29 03:37:54;;;;;;;4.60;2.00;;;12.20;99.90;;;;;;4989831;28;20042;-58
2023/10/29 03:40:20;;;;;;;4.40;2.20;;;12.20;99.90;;;;;;5005006;28;20075;-58
2023/10/29 03:42:46;;;;;;;2.97;1.90;;;12.20;99.90;;;;;;5029031;28;20491;-56
2023/10/29 03:45:12;;;;;;;3.17;1.80;;;12.20;99.90;;;;;;5026536;28;20236;-58
2023/10/29 03:47:37;;;;;;;5.88;1.73;;;12.30;99.90;;;;;;5024018;28;20132;-58
2023/10/29 03:50:04;;;;;;;3.53;1.60;;;12.30;99.90;;;;;;5033701;28;20383;-58
2023/10/29 03:52:29;;;;;;;3.72;1.52;;;12.30;99.90;;;;;;5025894;28;20122;-56
2023/10/29 03:54:55;;;;;;;6.07;1.92;;;12.30;99.90;;;;;;5030926;28;20446;-58
2023/10/29 03:57:21;;;;;;;2.20;1.52;;;12.30;99.90;;;;;;5029229;28;20067;-58
2023/10/29 03:59:47;;;;;;;4.38;1.60;;;12.30;99.90;;;;;;5031485;28;20378;-57
2023/10/29 04:02:12;;;;;;;5.90;1.70;;;12.30;99.90;;;;;;5025474;28;20042;-57
2023/10/29 04:04:38;;;;;;;2.45;1.70;;;12.30;99.90;;;;;;5022382;28;20044;-57
2023/10/29 04:07:04;;;;;;;2.95;1.60;;;12.30;99.90;;;;;;5027815;28;20625;-55
2023/10/29 04:09:29;;;;;;;3.13;1.42;;;12.30;99.90;;;;;;5020027;28;20037;-57
2023/10/29 04:11:55;;;;;;;3.70;1.40;;;12.30;99.90;;;;;;5022332;28;20437;-57
2023/10/29 04:14:21;;;;;;;5.03;1.80;;;12.30;99.90;;;;;;5023288;28;20075;-58
2023/10/29 04:16:47;;;;;;;1.75;1.40;;;12.30;99.90;;;;;;5003102;28;20033;-58
2023/10/29 04:19:13;;;;;;;4.47;1.40;;;12.40;99.90;;;;;;5004902;28;20040;-58
2023/10/29 04:21:39;;;;;;;4.25;1.58;;;12.40;99.90;;;;;;5023553;28;20709;-58
2023/10/29 04:24:05;;;;;;;3.80;1.23;;;12.40;99.90;;;;;;5028160;28;20052;-58
2023/10/29 04:26:31;;;;;;;1.80;1.30;;;12.40;99.90;;;;;;5010420;28;20041;-57
2023/10/29 04:28:57;;;;;;;1.65;1.40;;;12.40;99.90;;;;;;5015738;28;20068;-57
2023/10/29 04:31:23;;;;;;;2.45;1.48;;;12.50;99.90;;;;;;5020197;28;20032;-56
2023/10/29 04:33:48;;;;;;;3.33;1.30;;;12.50;99.90;;;;;;5005601;28;20037;-58
2023/10/29 04:36:22;;;;;;;2.97;1.33;;;12.50;99.90;;;;;;5029580;28;20102;-58
2023/10/29 04:38:48;;;;;;;2.92;1.20;;;12.60;99.90;;;;;;5026248;28;20041;-58
2023/10/29 04:41:14;;;;;;;4.32;1.10;;;12.70;99.90;;;;;;5032176;28;20076;-57
2023/10/29 04:43:43;;;;;;;1.70;0.93;;;12.70;99.90;;;;;;5033712;28;20511;-58
2023/10/29 04:46:10;;;;;;;1.23;0.90;;;12.80;99.90;;;;;;5027902;28;20432;-56
2023/10/29 04:48:37;;;;;;;5.47;1.70;;;12.80;99.90;;;;;;5028624;28;20164;-58
2023/10/29 04:51:06;;;;;;;5.43;3.10;;;12.70;99.90;;;;;;5025151;28;20045;-59
2023/10/29 04:53:36;;;;;;;2.35;1.08;;;12.70;99.90;;;;;;5013183;28;20049;-58
2023/10/29 04:56:02;;;;;;;2.58;1.77;;;12.60;99.90;;;;;;5028553;28;20437;-56
2023/10/29 04:58:29;;;;;;;3.13;2.13;;;12.60;99.90;;;;;;5035454;28;20076;-57
2023/10/29 05:00:56;;;;;;;2.95;1.60;;;12.50;99.90;;;;;;5015845;28;20048;-57
2023/10/29 05:03:22;;;;;;;3.33;2.25;;;12.50;99.90;;;;;;5036296;28;20044;-58
2023/10/29 05:05:48;;;;;;;2.22;0.85;;;12.40;99.90;;;;;;5034733;28;20480;-58
2023/10/29 05:08:13;;;;;;;1.33;0.77;;;12.40;99.90;;;;;;5034066;28;20102;-58
2023/10/29 05:10:43;;;;;;;1.25;0.50;;;12.30;99.90;;;;;;5028785;28;20048;-58
2023/10/29 05:13:09;;;;;;;1.73;0.63;;;12.30;99.90;;;;;;5013549;28;20049;-58
2023/10/29 05:15:34;;;;;;;1.85;0.75;;;12.20;99.90;;;;;;5022510;28;20041;-58
2023/10/29 05:18:00;;;;;;;1.33;0.60;;;12.20;99.90;;;;;;5020911;28;20056;-58
2023/10/29 05:20:26;;;;;;;3.80;0.95;;;12.20;99.90;;;;;;5029370;28;20044;-58
2023/10/29 05:22:52;;;;;;;2.58;0.70;;;12.10;99.90;;;;;;5010716;28;20044;-58
2023/10/29 05:25:18;;;;;;;1.83;0.90;;;12.10;99.90;;;;;;5029891;28;20056;-58
2023/10/29 05:27:51;;;;;;;2.20;0.70;;;12.10;99.90;;;;;;5025126;28;20499;-58
2023/10/29 05:30:17;;;;;;;;;;;12.00;99.90;;;;;;5029321;28;20041;-58
2023/10/29 05:32:43;;;;;;;4.38;0.88;;;12.00;99.90;;;;;;5018778;28;20394;-58
2023/10/29 05:35:09;;;;;;;2.83;0.90;;;12.00;99.90;;;;;;5031539;28;20660;-57
2023/10/29 05:37:35;;;;;;;1.60;0.98;;;12.00;99.90;;;;;;5009375;28;20045;-58
2023/10/29 05:40:05;;;;;;;0.90;0.80;;;11.90;99.90;;;;;;5037350;28;20048;-57
2023/10/29 05:42:31;;;;;;;3.50;0.90;;;11.90;99.90;;;;;;5035591;28;20053;-58
2023/10/29 05:44:57;;;;;;;1.45;0.70;;;11.90;99.90;;;;;;5031633;28;20744;-58
2023/10/29 05:47:23;;;;;;;4.05;1.08;;;11.90;99.90;;;;;;5031896;28;20044;-58
2023/10/29 05:49:49;;;;;;;0.77;0.73;;;11.90;99.90;;;;;;5034244;28;20037;-57
2023/10/29 05:52:15;;;;;;;2.38;0.95;;;11.90;99.90;;;;;;5012999;28;20072;-58
2023/10/29 05:54:41;;;;;;;3.53;0.80;;;11.90;99.90;;;;;;5035079;28;20049;-57
2023/10/29 05:57:07;;;;;;;2.53;0.70;;;11.90;99.90;;;;;;5032990;28;20193;-58
2023/10/29 05:59:32;;;;;;;2.90;1.00;;;11.90;99.90;;;;;;5029665;28;20072;-58
2023/10/29 06:01:59;;;;;;;1.65;0.70;;;11.80;99.90;;;;;;5014634;28;20073;-58
2023/10/29 06:04:26;;;;;;;4.43;0.90;;;11.80;99.90;;;;;;5035344;28;20049;-58
2023/10/29 06:06:51;;;;;;;2.83;0.90;;;11.90;99.90;;;;;;5035940;28;20176;-59
2023/10/29 06:09:17;;;;;;;1.08;0.70;;;11.90;99.90;;;;;;5028407;28;20700;-57
2023/10/29 06:11:43;;;;;;;1.55;0.98;;;11.90;99.90;;;;;;5025836;28;20041;-58
2023/10/29 06:14:09;;;;;;;7.00;1.10;;;11.90;99.90;;;;;;5022678;28;20044;-58
2023/10/29 06:16:35;;;;;;;3.45;1.15;;;12.00;99.90;;;;;;5034003;28;20036;-55
2023/10/29 06:19:03;;;;;;;4.55;1.20;;;12.00;99.90;;;;;;5036512;28;20570;-59
2023/10/29 06:21:30;;;;;;;7.40;2.20;;;12.10;99.90;;;;;;5012917;28;20045;-58
2023/10/29 06:23:56;;;;;;;4.80;0.80;;;12.10;99.90;;;;;;5040449;28;20098;-58
2023/10/29 06:26:23;;;;;;;5.45;1.80;;;12.10;99.90;;;;;;5037212;28;20107;-57
2023/10/29 06:28:48;;;;;;;2.28;1.00;;;12.00;99.90;;;;;;5017115;28;20197;-58
2023/10/29 06:31:15;;;;;;;2.63;0.80;;;11.90;99.90;;;;;;5022473;28;20037;-58
2023/10/29 06:33:41;;;;;;;2.75;0.80;;;11.90;99.90;;;;;;5020349;28;20037;-57
2023/10/29 06:36:07;;;;;;;2.97;0.93;;;11.90;99.90;;;;;;5029918;28;20063;-57
2023/10/29 06:38:33;;;;;;;5.18;0.90;;;11.80;99.90;;;;;;5036534;28;21677;-59
2023/10/29 06:40:59;;;;;;;2.17;0.98;;;11.80;99.90;;;;;;5014417;28;20033;-58
2023/10/29 06:43:26;;;;;;;5.88;1.33;;;11.80;99.90;;;;;;5033282;28;20537;-58
2023/10/29 06:45:52;;;;;;;3.28;0.80;;;11.90;99.90;;;;;;5033138;28;20115;-58
2023/10/29 06:48:18;;;;;;;3.65;1.00;;;11.90;99.90;;;;;;5036396;28;20598;-58
2023/10/29 06:50:44;;;;;;;6.22;1.05;;;11.90;99.90;;;;;;5022959;28;20035;-58
2023/10/29 06:53:09;;;;;;;5.88;1.60;;;12.00;99.90;;;;;;5018637;28;20144;-57
2023/10/29 06:55:36;;;;;;;3.47;1.13;;;12.00;99.90;;;;;;5035181;28;20068;-58
2023/10/29 06:58:02;;;;;;;2.65;1.02;;;12.00;99.90;;;;;;5029846;28;20037;-57
2023/10/29 07:00:29;;;;;;;3.38;1.25;;;12.00;99.90;;;;;;5038172;28;25970;-59
2023/10/29 07:02:55;;;;;;;4.40;2.53;;;12.00;99.90;;;;;;5036753;28;20037;-58
2023/10/29 07:05:21;;;;;;;5.07;1.30;;;12.00;99.90;;;;;;5032289;28;20055;-57
2023/10/29 07:07:47;;;;;;;3.80;1.30;;;12.10;99.90;;;;;;5034358;28;20095;-57
2023/10/29 07:10:13;;;;;;;3.63;1.10;;;12.10;99.90;;;;;;5037601;28;20116;-58
2023/10/29 07:12:39;;;;;;;6.63;1.10;;;12.10;99.90;;;;;;5036435;28;20453;-58
2023/10/29 07:15:05;;;;;;;3.08;1.10;;;12.20;99.90;;;;;;5037259;28;20498;-57
2023/10/29 07:17:31;;;;;;;2.13;1.00;;;12.20;99.90;;;;;;5040148;28;20041;-58
2023/10/29 07:19:57;;;;;;;1.63;0.70;;;12.20;99.90;;;;;;5030682;28;20059;-58
2023/10/29 07:22:22;;;;;;;3.42;1.17;;;12.20;99.90;;;;;;5034065;28;20128;-57
2023/10/29 07:24:48;;;;;;;6.50;1.13;;;12.30;99.90;;;;;;5034557;28;20041;-57
2023/10/29 07:27:14;;;;;;;4.55;1.08;;;12.30;99.90;;;;;;5037642;28;20048;-58
2023/10/29 07:29:40;;;;;;;4.20;0.80;;;12.30;99.90;;;;;;5017280;28;20063;-57
2023/10/29 07:32:06;;;;;;;3.45;1.13;;;12.40;99.90;;;;;;5037879;28;20036;-58
2023/10/29 07:34:31;;;;;;;2.13;1.02;;;12.40;99.90;;;;;;5030521;28;20495;-58
2023/10/29 07:36:57;;;;;;;3.47;1.08;;;12.40;99.90;;;;;;5039262;28;20162;-57
2023/10/29 07:39:23;;;;;;;1.98;1.15;;;12.40;99.90;;;;;;5037218;28;20044;-59
2023/10/29 07:41:49;;;;;;;2.92;1.40;;;12.40;99.90;;;;;;5040844;28;20094;-58
2023/10/29 07:44:14;;;;;;;3.80;1.50;;;12.40;99.90;;;;;;5018285;28;20083;-58
2023/10/29 07:46:40;;;;;;;3.47;1.50;;;12.40;99.90;;;;;;5028603;28;20139;-59
2023/10/29 07:49:06;;;;;;;10.10;2.28;;;12.40;99.90;;;;;;5031294;28;20130;-59
2023/10/29 07:51:31;;;;;;;4.78;1.70;;;12.40;99.90;;;;;;5032031;28;20065;-58
2023/10/29 07:53:57;;;;;;;4.50;2.85;;;12.40;99.90;;;;;;5028987;28;20484;-58
2023/10/29 07:56:23;;;;;;;4.22;2.17;;;12.50;99.90;;;;;;5029044;28;20060;-57
2023/10/29 07:58:49;;;;;;;4.35;2.58;;;12.50;99.90;;;;;;5030586;28;20131;-57
2023/10/29 08:01:16;;;;;;;4.97;1.35;;;12.50;99.90;;;;;;5028678;28;20131;-58
2023/10/29 08:03:43;;;;;;;5.55;2.10;;;12.50;99.90;;;;;;5008821;28;20045;-58
2023/10/29 08:06:10;;;;;;;4.05;2.03;;;12.50;99.90;;;;;;5010194;28;20041;-57
2023/10/29 08:08:36;;;;;;;4.55;2.35;;;12.50;99.90;;;;;;5033855;28;20107;-58
2023/10/29 08:11:02;;;;;;;6.00;2.60;;;12.50;99.90;;;;;;5012670;28;20045;-58
2023/10/29 08:13:28;;;;;;;4.85;2.35;;;12.50;99.90;;;;;;5026222;28;20064;-59
2023/10/29 08:15:54;;;;;;;6.38;2.17;;;12.50;99.90;;;;;;5029495;28;20041;-57
2023/10/29 08:18:20;;;;;;;3.60;2.30;;;12.60;99.90;;;;;;4999657;28;20076;-58
2023/10/29 08:20:46;;;;;;;5.80;2.67;;;12.60;99.90;;;;;;5029120;28;20037;-58
2023/10/29 08:23:12;;;;;;;5.88;1.23;;;12.60;99.90;;;;;;5026700;28;20396;-57
2023/10/29 08:25:38;;;;;;;7.07;1.20;;;12.70;99.90;;;;;;5025309;28;20044;-58
2023/10/29 08:28:07;;;;;;;3.80;1.25;;;12.70;99.90;;;;;;5029563;28;20044;-58
2023/10/29 08:30:33;;;;;;;3.38;1.38;;;12.80;99.90;;;;;;5021904;28;20703;-59
2023/10/29 08:32:58;;;;;;;5.03;1.50;;;12.90;99.90;;;;;;5019056;28;20045;-58
2023/10/29 08:35:24;;;;;;;4.97;0.98;;;13.00;99.90;;;;;;5018488;28;20049;-58
2023/10/29 08:37:50;;;;;;;6.88;1.30;;;13.10;99.90;;;;;;5026184;28;20041;-58
2023/10/29 08:40:16;;;;;;;3.28;0.90;;;13.20;99.90;;;;;;5021888;28;20076;-58
2023/10/29 08:42:42;;;;;;;7.05;1.20;;;13.20;99.90;;;;;;5008003;28;20438;-58
2023/10/29 08:45:08;;;;;;;4.88;1.40;;;13.30;99.90;;;;;;5026734;28;20049;-57
2023/10/29 08:47:34;;;;;;;3.92;1.48;;;13.30;99.90;;;;;;5013588;28;20044;-58
2023/10/29 08:49:59;;;;;;;5.45;1.30;;;13.40;99.90;;;;;;5023509;28;20045;-57
2023/10/29 08:52:25;;;;;;;4.18;1.40;;;13.40;99.90;;;;;;5026700;28;20093;-58
2023/10/29 08:54:51;;;;;;;4.93;1.27;;;13.50;99.90;;;;;;5023023;28;20781;-58
2023/10/29 08:57:18;;;;;;;6.90;1.20;;;13.50;99.90;;;;;;5014000;28;21678;-58
2023/10/29 08:59:44;;;;;;;6.63;1.30;;;13.40;99.90;;;;;;5019587;28;20046;-57
2023/10/29 09:02:10;;;;;;;3.88;1.30;;;13.40;99.90;;;;;;5018256;28;20392;-58
2023/10/29 09:04:41;;;;;;;5.47;1.35;;;13.50;99.90;;;;;;5023606;28;20092;-58
2023/10/29 09:07:07;;;;;;;5.07;0.90;;;13.50;99.90;;;;;;4986424;28;20083;-58
2023/10/29 09:09:33;;;;;;;7.13;1.50;;;13.50;99.90;;;;;;5023119;28;20120;-59
2023/10/29 09:11:58;;;;;;;8.38;1.52;;;13.50;99.90;;;;;;5023158;28;20040;-58
2023/10/29 09:14:24;;;;;;;5.25;1.10;;;13.50;99.90;;;;;;4986662;28;20041;-58
2023/10/29 09:16:50;;;;;;;5.88;1.58;;;13.40;99.90;;;;;;5026371;28;20143;-58
2023/10/29 09:19:16;;;;;;;7.50;1.77;;;13.40;99.90;;;;;;5027667;28;20037;-56
2023/10/29 09:21:44;;;;;;;8.27;2.45;;;13.30;99.90;;;;;;5030821;28;20042;-58
2023/10/29 09:24:09;;;;;;;5.90;1.98;;;13.30;99.90;;;;;;5032011;28;20049;-58
2023/10/29 09:26:36;;;;;;;5.90;2.28;;;13.20;99.90;;;;;;5015506;28;20565;-59
2023/10/29 09:29:02;;;;;;;4.72;2.13;;;13.30;99.90;;;;;;5028096;28;20087;-59
2023/10/29 09:31:29;;;;;;;5.82;2.20;;;13.30;99.90;;;;;;5007732;28;20048;-59
2023/10/29 09:33:55;;;;;;;4.35;1.30;;;13.30;99.90;;;;;;5009919;28;20510;-58
2023/10/29 09:36:21;;;;;;;5.32;1.35;;;13.40;99.90;;;;;;5035633;28;20044;-57
2023/10/29 09:38:47;;;;;;;6.53;1.40;;;13.50;99.90;;;;;;5026987;28;20128;-58
2023/10/29 09:41:19;;;;;;;5.50;1.42;;;13.70;99.90;;;;;;5008039;28;20040;-58
2023/10/29 09:43:46;;;;;;;5.97;1.10;;;13.70;99.90;;;;;;5024908;28;20484;-59
2023/10/29 09:46:12;;;;;;;5.85;1.50;;;13.80;99.90;;;;;;5016656;28;20045;-56
2023/10/29 09:48:41;;;;;;;5.57;1.40;;;13.90;99.90;;;;;;5021950;28;20708;-58
2023/10/29 09:51:07;;;;;;;5.45;1.70;;;13.90;99.90;;;;;;5025339;28;20499;-58
2023/10/29 09:53:39;;;;;;;8.65;1.63;;;13.80;99.90;;;;;;5023218;28;20049;-58
2023/10/29 09:56:09;;;;;;;6.57;1.50;;;13.90;99.90;;;;;;5021505;28;20068;-58
2023/10/29 09:58:36;;;;;;;5.88;1.45;;;13.90;99.90;;;;;;5023087;28;20627;-58
2023/10/29 10:01:04;;;;;;;6.30;1.33;;;14.00;99.90;;;;;;5022704;28;20041;-58
2023/10/29 10:03:30;;;;;;;4.20;1.35;;;14.00;99.90;;;;;;5022498;28;21150;-59
2023/10/29 10:06:00;;;;;;;7.90;1.60;;;14.10;99.90;;;;;;5015543;28;20037;-57
2023/10/29 10:08:30;;;;;;;6.30;1.30;;;14.20;99.90;;;;;;5007534;28;20041;-58
2023/10/29 10:10:57;;;;;;;5.05;1.80;;;14.20;99.90;;;;;;5023038;28;20055;-58
2023/10/29 10:13:41;;;;;;;5.75;1.20;;;14.30;99.90;;;;;;5022746;28;20037;-58
2023/10/29 10:16:12;;;;;;;4.95;1.20;;;14.30;99.90;;;;;;5023965;28;20051;-57
2023/10/29 10:18:51;;;;;;;3.75;1.27;;;14.30;99.90;;;;;;5024895;28;20541;-58
2023/10/29 10:21:20;;;;;;;5.35;1.30;;;14.30;99.90;;;;;;5027077;28;20057;-58
2023/10/29 10:23:49;;;;;;;5.68;1.40;;;14.40;99.90;;;;;;5022777;28;20044;-58
2023/10/29 10:26:18;;;;;;;4.88;1.55;;;14.40;99.90;;;;;;5008867;28;20516;-57
2023/10/29 10:29:08;;;;;;;5.47;1.63;;;14.40;99.90;;;;;;5005924;28;20510;-58
2023/10/29 10:31:35;;;;;;;6.35;2.00;;;14.40;99.90;;;;;;5016365;28;20609;-57
2023/10/29 10:34:18;;;;;;;2.25;1.17;;;14.40;99.90;;;;;;5024352;28;20049;-58
2023/10/29 10:36:53;;;;;;;5.18;1.77;;;14.50;99.90;;;;;;5019887;28;20160;-58
2023/10/29 10:39:22;;;;;;;4.45;1.73;;;14.50;99.90;;;;;;5026274;28;20051;-57
2023/10/29 10:41:49;;;;;;;4.53;1.60;;;14.60;99.90;;;;;;5005809;28;20045;-58
2023/10/29 10:44:16;;;;;;;6.65;1.42;;;14.70;99.90;;;;;;5021716;28;20041;-58
2023/10/29 10:46:50;;;;;;;4.05;1.50;;;14.70;99.90;;;;;;5018716;28;20032;-58
2023/10/29 10:49:17;;;;;;;8.45;1.50;;;14.60;99.90;;;;;;5027900;28;20041;-58
2023/10/29 10:51:44;;;;;;;5.93;1.42;;;14.60;99.90;;;;;;5009168;28;20117;-58
2023/10/29 10:54:10;;;;;;;6.03;1.90;;;14.60;99.90;;;;;;5010605;28;22312;-59
2023/10/29 10:56:37;;;;;;;8.75;1.38;;;14.60;99.90;;;;;;5024707;28;20080;-56
2023/10/29 10:59:07;;;;;;;7.22;1.80;;;14.60;99.90;;;;;;5027162;28;20411;-58
2023/10/29 11:01:38;;;;;;;4.57;1.38;;;14.60;99.90;;;;;;5031229;28;20660;-58
2023/10/29 11:04:05;;;;;;;4.50;1.30;;;14.60;99.90;;;;;;5031961;28;20045;-58
2023/10/29 11:06:32;;;;;;;4.13;1.30;;;14.70;99.90;;;;;;5035115;28;20491;-58
2023/10/29 11:09:01;;;;;;;6.95;1.40;;;14.80;99.90;;;;;;5030360;28;20049;-58
2023/10/29 11:11:34;;;;;;;2.90;1.20;;;14.90;99.90;;;;;;5027507;28;20446;-57
2023/10/29 11:14:14;;;;;;;5.07;1.73;;;15.00;99.90;;;;;;5029118;28;20047;-57
2023/10/29 11:16:54;;;;;;;7.75;1.20;;;15.10;99.90;;;;;;5033194;28;20064;-57
2023/10/29 11:19:46;;;;;;;5.38;1.65;;;15.10;99.90;;;;;;5015354;28;20080;-58
2023/10/29 11:22:14;;;;;;;5.13;1.63;;;15.00;99.90;;;;;;5022680;28;20446;-57
2023/10/29 11:24:40;;;;;;;5.95;1.40;;;15.00;99.90;;;;;;5025452;28;20074;-59
2023/10/29 11:27:37;;;;;;;7.18;1.58;;;14.90;99.90;;;;;;5023709;28;20049;-57
2023/10/29 11:30:13;;;;;;;8.60;1.95;;;14.90;99.90;;;;;;5024632;28;20249;-58
2023/10/29 11:32:41;;;;;;;9.32;2.22;;;14.90;99.90;;;;;;5023659;28;20140;-59
2023/10/29 11:35:16;;;;;;;7.03;1.90;;;14.90;99.90;;;;;;5018901;28;20187;-59
2023/10/29 11:37:46;;;;;;;8.93;2.78;;;15.00;99.90;;;;;;5025961;28;20078;-59
2023/10/29 11:40:24;;;;;;;8.45;3.00;;;15.10;99.90;;;;;;5028333;28;20136;-58
2023/10/29 11:42:53;;;;;;;6.88;1.85;;;15.30;99.90;;;;;;5028684;28;20051;-58
2023/10/29 11:45:28;;;;;;;7.28;1.80;;;15.40;99.90;;;;;;5030377;28;20403;-58
2023/10/29 11:48:13;;;;;;;11.48;2.67;;;15.40;99.90;;;;;;5029319;28;20159;-58
2023/10/29 11:51:02;;;;;;;12.43;2.53;;;15.30;99.90;;;;;;5029992;28;20550;-57
2023/10/29 11:53:28;;;;;;;8.93;2.60;;;15.20;99.90;;;;;;5030644;28;20153;-58
2023/10/29 11:55:59;;;;;;;11.23;2.35;;;15.10;99.90;;;;;;5033467;28;20488;-58
2023/10/29 11:58:29;;;;;;;8.70;2.83;;;15.00;99.90;;;;;;5027535;28;20171;-58
2023/10/29 12:00:55;;;;;;;8.93;2.30;;;14.90;99.90;;;;;;5032061;28;20045;-58
2023/10/29 12:03:22;;;;;;;10.20;2.60;;;14.80;99.90;;;;;;5017875;28;20052;-58
2023/10/29 12:05:52;;;;;;;10.48;2.33;;;14.70;99.90;;;;;;5028082;28;20098;-58
2023/10/29 12:08:18;;;;;;;9.63;2.35;;;14.70;99.90;;;;;;5028176;28;20037;-57
2023/10/29 12:10:49;;;;;;;9.07;2.15;;;14.60;99.90;;;;;;5026693;28;20056;-57
2023/10/29 12:13:18;;;;;;;8.68;2.08;;;14.60;99.90;;;;;;5020184;28;20036;-57
2023/10/29 12:15:54;;;;;;;9.18;2.30;;;14.50;99.90;;;;;;5018259;28;20102;-57
2023/10/29 12:18:21;;;;;;;8.27;2.15;;;14.50;99.90;;;;;;4994452;28;20142;-58
2023/10/29 12:20:47;;;;;;;12.10;2.65;;;14.50;99.90;;;;;;5016786;28;20788;-58
2023/10/29 12:23:13;;;;;;;7.22;2.78;;;14.40;99.90;;;;;;5009025;28;20084;-58
2023/10/29 12:25:39;;;;;;;6.65;2.05;;;14.40;99.90;;;;;;5023378;28;20518;-59
2023/10/29 12:28:08;;;;;;;8.82;2.35;;;14.40;99.90;;;;;;5030135;28;20045;-58
2023/10/29 12:30:40;;;;;;;6.78;2.05;;;14.30;99.90;;;;;;5031407;28;20040;-58
2023/10/29 12:33:16;;;;;;;;;;;14.30;99.90;;;;;;5014610;28;20029;-58
2023/10/29 12:35:42;;;;;;;6.88;2.22;;;14.30;99.90;;;;;;5030808;28;19917;-57
2023/10/29 12:38:12;;;;;;;11.25;3.00;;;14.30;99.90;;;;;;5031044;28;20049;-58
2023/10/29 12:40:57;;;;;;;12.18;3.22;;;14.30;99.90;;;;;;5030596;28;20037;-58
2023/10/29 12:43:47;;;;;;;11.60;3.10;;;14.30;99.90;;;;;;5030513;28;20052;-58
2023/10/29 12:46:17;;;;;;;12.05;3.17;;;14.30;99.90;;;;;;5024663;28;20139;-57
2023/10/29 12:49:09;;;;;;;9.43;2.25;;;14.30;99.90;;;;;;5028929;28;20040;-57